»·PEaware :: COA581 KFAT-KLAS

COA581 :: KFAT-KLAS

FLIGHT INFORMATION

Flight Status: Arrived
Operator:
Continental Air Lines
More flights by this operator :: More flights under this callsign
Pilot: John L. (29598)
Aircraft: BOEING 737-700
(B737)
More flights by this aircraft type
Origin: KFAT Fresno Yosemite Intl
United States
Destination: KLAS McCarran Intl
United States
More flights between these airports :: More routes between these airports
Route: FRA CABAB Q162 KENNO TACUS SUNST4
File this flight plan on PilotEdge
Remarks:
Altitude:
(Current/Filed)
35,000ft
Speed:
(Current/Filed)
450kts
Departed: 07-Jan-21 08:28 PM
Arrived: 07-Jan-21 09:29 PM
Distance/Time
Traveled:
225nm/1:00
Distance/Time
To Go:
Arrived

Flight Plot

Page will automatically refresh every two minutes.

Flight plan parsing failed; only flown route is shown


Map Options




Map Legend


Flown Route
Filed Route
Departure Airport
Arrival Airport
Navaid (VOR, NDB)
Fix

Horizontal Profiles

Position Reports

Time Latitude Longitude Heading Altitude Ground
Speed
07-Jan-21 19:56 36.771886 -119.718996 137 340ft 0kts
07-Jan-21 19:57 36.771886 -119.718996 137 340ft 0kts
07-Jan-21 19:58 36.771886 -119.718996 137 340ft 0kts
07-Jan-21 19:59 36.771886 -119.718996 137 340ft 0kts
07-Jan-21 20:00 36.771886 -119.718996 137 340ft 0kts
07-Jan-21 20:01 36.771886 -119.718996 137 340ft 0kts
07-Jan-21 20:02 36.771886 -119.718996 137 340ft 0kts
07-Jan-21 20:03 36.771886 -119.718996 137 340ft 0kts
07-Jan-21 20:04 36.771886 -119.718996 137 340ft 0kts
07-Jan-21 20:05 36.771886 -119.718996 137 340ft 0kts
07-Jan-21 20:06 36.771886 -119.718996 137 340ft 0kts
07-Jan-21 20:07 36.771886 -119.718996 137 340ft 0kts
07-Jan-21 20:08 36.771886 -119.718996 137 340ft 0kts
07-Jan-21 20:09 36.771886 -119.718996 137 340ft 0kts
07-Jan-21 20:10 36.771886 -119.718996 137 340ft 0kts
07-Jan-21 20:11 36.771886 -119.718996 137 340ft 0kts
07-Jan-21 20:12 36.771886 -119.718996 137 340ft 0kts
07-Jan-21 20:12 36.771886 -119.718996 137 340ft 0kts
07-Jan-21 20:13 36.771886 -119.718996 137 340ft 0kts
07-Jan-21 20:14 36.771886 -119.718996 137 340ft 0kts
07-Jan-21 20:16 36.771967 -119.719088 137 341ft 2kts
07-Jan-21 20:16 36.772241 -119.719499 89 341ft 2kts
07-Jan-21 20:17 36.772099 -119.719793 35 341ft 0kts
07-Jan-21 20:18 36.772099 -119.719793 35 341ft 0kts
07-Jan-21 20:19 36.772100 -119.719793 35 341ft 0kts
07-Jan-21 20:20 36.772099 -119.719793 35 341ft 0kts
07-Jan-21 20:21 36.772099 -119.719793 35 341ft 0kts
07-Jan-21 20:22 36.772435 -119.719492 36 341ft 5kts
07-Jan-21 20:23 36.772638 -119.716668 125 341ft 19kts
07-Jan-21 20:24 36.769748 -119.711611 125 341ft 12kts
07-Jan-21 20:25 36.769697 -119.710969 43 341ft 0kts
07-Jan-21 20:26 36.770509 -119.710462 310 340ft 4kts
07-Jan-21 20:27 36.787053 -119.739488 305 1553ft 162kts
07-Jan-21 20:28 36.819716 -119.798533 305 3554ft 250kts
07-Jan-21 20:29 36.859530 -119.873123 304 7236ft 269kts
07-Jan-21 20:30 36.902430 -119.952715 304 10482ft 293kts
07-Jan-21 20:31 36.962665 -120.027797 340 13369ft 331kts
07-Jan-21 20:32 37.046001 -119.986268 63 15013ft 362kts
07-Jan-21 20:33 37.067313 -119.863118 79 15000ft 362kts
07-Jan-21 20:34 37.084550 -119.739085 79 15001ft 362kts
07-Jan-21 20:35 37.102145 -119.611765 79 17691ft 381kts
07-Jan-21 20:36 37.127621 -119.479465 74 20469ft 402kts
07-Jan-21 20:37 37.155359 -119.340613 75 23008ft 421kts
07-Jan-21 20:38 37.184091 -119.195773 74 25276ft 438kts
07-Jan-21 20:39 37.213774 -119.044964 74 27374ft 454kts
07-Jan-21 20:40 37.244272 -118.888879 73 29309ft 468kts
07-Jan-21 20:41 37.275204 -118.728139 76 31158ft 480kts
07-Jan-21 20:42 37.291371 -118.561153 81 33279ft 482kts
07-Jan-21 20:43 37.306639 -118.394395 81 35173ft 483kts
07-Jan-21 20:44 37.322152 -118.222808 81 35271ft 495kts
07-Jan-21 20:45 37.337290 -118.052018 81 35274ft 492kts
07-Jan-21 20:46 37.348592 -117.880481 91 35279ft 494kts
07-Jan-21 20:47 37.334476 -117.708761 95 35278ft 495kts
07-Jan-21 20:48 37.319164 -117.537940 95 35279ft 494kts
07-Jan-21 20:49 37.301706 -117.367041 103 35285ft 494kts
07-Jan-21 20:50 37.246597 -117.209861 124 35270ft 491kts
07-Jan-21 20:51 37.172469 -117.066400 124 33358ft 489kts
07-Jan-21 20:52 37.095497 -116.926578 134 30884ft 488kts
07-Jan-21 20:53 36.990580 -116.821571 149 28417ft 482kts
07-Jan-21 20:54 36.881187 -116.730387 149 25920ft 451kts
07-Jan-21 20:55 36.784083 -116.642270 140 24245ft 426kts
07-Jan-21 20:56 36.696444 -116.539518 139 24231ft 432kts
07-Jan-21 20:57 36.609037 -116.437321 139 23081ft 422kts
07-Jan-21 20:58 36.524915 -116.339294 140 21247ft 410kts
07-Jan-21 20:59 36.444168 -116.242001 135 19631ft 400kts
07-Jan-21 21:00 36.371903 -116.140000 135 18022ft 388kts
07-Jan-21 21:01 36.303654 -116.044171 135 16395ft 342kts
07-Jan-21 21:02 36.243294 -115.959791 135 15998ft 327kts
07-Jan-21 21:03 36.190376 -115.868174 115 16002ft 333kts
07-Jan-21 21:04 36.156464 -115.762758 113 15663ft 323kts
07-Jan-21 21:05 36.123970 -115.661827 113 14341ft 309kts
07-Jan-21 21:06 36.092648 -115.565066 112 13058ft 297kts
07-Jan-21 21:07 36.061651 -115.469396 112 11797ft 304kts
07-Jan-21 21:08 36.032855 -115.377823 103 11029ft 266kts
07-Jan-21 21:09 36.024528 -115.285212 94 10042ft 268kts
07-Jan-21 21:10 36.018025 -115.195187 94 8959ft 256kts
07-Jan-21 21:11 36.012287 -115.110480 93 8180ft 229kts
07-Jan-21 21:12 36.007545 -115.034887 92 8019ft 233kts
07-Jan-21 21:13 36.002812 -114.955115 93 8010ft 232kts
07-Jan-21 21:14 35.998023 -114.875395 93 8008ft 233kts
07-Jan-21 21:15 35.992980 -114.795275 93 8009ft 233kts
07-Jan-21 21:16 35.987805 -114.717100 93 7997ft 204kts
07-Jan-21 21:17 35.984160 -114.651895 83 8009ft 188kts
07-Jan-21 21:18 36.015093 -114.605436 14 8010ft 184kts
07-Jan-21 21:19 36.059996 -114.626898 303 8011ft 188kts
07-Jan-21 21:20 36.070261 -114.690555 277 8009ft 190kts
07-Jan-21 21:21 36.073525 -114.755757 271 8009ft 191kts
07-Jan-21 21:22 36.073485 -114.821212 271 7059ft 188kts
07-Jan-21 21:23 36.073594 -114.885364 271 6069ft 185kts
07-Jan-21 21:24 36.073692 -114.948491 271 5061ft 182kts
07-Jan-21 21:25 36.073698 -115.007878 270 4093ft 152kts
07-Jan-21 21:26 36.073763 -115.058589 270 3289ft 146kts
07-Jan-21 21:27 36.073782 -115.108296 269 2496ft 143kts
07-Jan-21 21:28 36.073702 -115.145789 269 2186ft 37kts
07-Jan-21 21:29 36.076245 -115.151851 335 2186ft 15kts
07-Jan-21 21:30 36.077394 -115.152522 334 2186ft 0kts
07-Jan-21 21:31 36.078694 -115.152966 48 2186ft 9kts
07-Jan-21 21:32 36.078568 -115.147852 94 2186ft 19kts
07-Jan-21 21:33 36.078397 -115.141693 44 2186ft 9kts
07-Jan-21 21:34 36.080276 -115.140814 95 2186ft 4kts

Navigation Log

Ident Type
Flight plan parsing failed, navigation log unavailable